Time;durP1;ratioP1;P1;durP2;ratioP2;P2;SDS_P1;SDS_P2;PMS_P1;PMS_P2;Temp;Humidity;BMP_temperature;BMP_pressure;BME280_temperature;BME280_humidity;BME280_pressure;Samples;Min_cycle;Max_cycle;Signal;HPM_P1;HPM_P2
2022/12/27 00:00:52;;;;;;;3.07;1.80;;;6.70;75.10;;;9.41;54.19;101659.72;5033318;28;20273;-52
2022/12/27 00:03:19;;;;;;;3.27;2.07;;;6.70;75.10;;;9.36;53.72;101648.81;5037089;28;20273;-52
2022/12/27 00:05:47;;;;;;;5.20;2.50;;;6.70;75.00;;;9.34;53.75;101659.44;5036443;28;20309;-53
2022/12/27 00:08:15;;;;;;;4.67;2.10;;;6.70;74.90;;;9.34;53.82;101662.06;5035935;28;20243;-53
2022/12/27 00:10:42;;;;;;;7.43;2.00;;;6.70;75.10;;;9.31;53.81;101654.50;5039251;28;20209;-56
2022/12/27 00:13:09;;;;;;;5.93;2.17;;;6.70;74.90;;;9.29;54.22;101661.69;5035054;28;20199;-56
2022/12/27 00:15:36;;;;;;;6.67;2.27;;;6.70;75.00;;;9.30;53.98;101652.81;5022666;28;20652;-55
2022/12/27 00:18:03;;;;;;;3.83;1.90;;;6.70;75.00;;;9.29;53.85;101659.06;5024812;28;20212;-57
2022/12/27 00:20:30;;;;;;;3.00;1.70;;;6.60;75.10;;;9.28;53.78;101654.78;5023534;28;20213;-55
2022/12/27 00:22:59;;;;;;;3.70;1.90;;;6.60;75.00;;;9.24;54.07;101658.66;5021929;28;20200;-55
2022/12/27 00:25:27;;;;;;;6.37;2.23;;;6.60;75.10;;;9.26;53.96;101661.97;5022956;28;20332;-55
2022/12/27 00:27:54;;;;;;;4.23;2.20;;;6.60;75.30;;;9.21;54.60;101660.72;5023564;28;20188;-55
2022/12/27 00:30:21;;;;;;;6.30;2.00;;;6.60;75.10;;;9.14;54.32;101673.63;5024040;28;20231;-54
2022/12/27 00:32:48;;;;;;;5.63;2.03;;;6.60;75.10;;;9.13;54.48;101668.50;5022942;28;20199;-54
2022/12/27 00:35:15;;;;;;;5.60;2.20;;;6.60;75.00;;;9.13;54.45;101666.69;5026515;28;20214;-54
2022/12/27 00:37:42;;;;;;;7.53;1.97;;;6.50;75.10;;;9.14;54.45;101675.41;5024206;28;20195;-55
2022/12/27 00:40:11;;;;;;;4.27;1.83;;;6.50;75.20;;;9.10;54.60;101672.25;5025159;28;20249;-58
2022/12/27 00:42:39;;;;;;;4.40;2.10;;;6.50;75.40;;;9.12;54.45;101682.59;5027109;28;20203;-54
2022/12/27 00:45:07;;;;;;;4.67;2.10;;;6.50;75.60;;;9.13;54.30;101682.44;5022162;28;20220;-55
2022/12/27 00:47:34;;;;;;;4.70;1.90;;;6.50;75.70;;;9.08;54.73;101679.41;5024136;28;20204;-55
2022/12/27 00:50:01;;;;;;;4.53;1.67;;;6.50;75.70;;;9.09;54.76;101686.34;5043711;28;20356;-55
2022/12/27 00:52:28;;;;;;;5.00;2.00;;;6.40;75.70;;;9.11;54.63;101691.44;5041608;28;20193;-52
2022/12/27 00:54:55;;;;;;;4.37;2.10;;;6.40;76.10;;;9.13;54.66;101677.19;5040353;28;20186;-55
2022/12/27 00:57:22;;;;;;;6.43;2.30;;;6.50;76.20;;;9.16;54.73;101682.19;5043400;28;20187;-54
2022/12/27 00:59:50;;;;;;;6.80;2.17;;;6.50;76.10;;;9.19;54.49;101686.31;5047762;28;20218;-55
2022/12/27 01:02:17;;;;;;;4.50;2.00;;;6.40;76.10;;;9.21;54.53;101685.22;5044058;28;20203;-55
2022/12/27 01:04:44;;;;;;;9.60;2.77;;;6.40;76.00;;;9.20;54.73;101688.78;5045964;28;20668;-56
2022/12/27 01:07:11;;;;;;;6.03;2.30;;;6.40;75.90;;;9.17;54.52;101683.00;5046027;28;20205;-55
2022/12/27 01:09:38;;;;;;;8.00;1.90;;;6.50;76.20;;;9.16;54.48;101681.34;5045881;28;20213;-56
2022/12/27 01:12:05;;;;;;;3.23;1.80;;;6.40;76.10;;;9.15;54.84;101687.59;5045985;28;20194;-55
2022/12/27 01:14:32;;;;;;;10.93;2.97;;;6.40;76.20;;;9.14;54.83;101684.13;5049712;28;20250;-55
2022/12/27 01:17:00;;;;;;;9.77;2.17;;;6.40;76.30;;;9.13;54.65;101687.69;5044679;28;20191;-55
2022/12/27 01:19:27;;;;;;;6.67;2.30;;;6.40;76.40;;;9.13;55.06;101687.69;5027348;28;20275;-52
2022/12/27 01:21:54;;;;;;;4.50;2.90;;;6.40;76.40;;;9.09;55.14;101686.34;5015858;28;20191;-53
2022/12/27 01:24:21;;;;;;;6.23;2.13;;;6.40;76.20;;;9.11;55.06;101696.69;5015211;28;20198;-54
2022/12/27 01:26:48;;;;;;;5.43;2.27;;;6.40;76.40;;;9.11;54.92;101689.66;5014870;28;20259;-54
2022/12/27 01:29:15;;;;;;;7.00;2.43;;;6.40;76.50;;;9.13;54.73;101698.19;5014319;28;20667;-55
2022/12/27 01:31:42;;;;;;;5.93;2.47;;;6.40;76.50;;;9.12;55.30;101701.81;5031287;28;20658;-52
2022/12/27 01:34:10;;;;;;;6.23;2.03;;;6.40;76.40;;;9.14;54.91;101699.88;5032991;28;20551;-53
2022/12/27 01:36:37;;;;;;;6.53;2.23;;;6.40;76.60;;;9.17;55.25;101699.59;5034365;28;20185;-52
2022/12/27 01:39:04;;;;;;;3.73;2.40;;;6.40;76.50;;;9.20;55.09;101683.53;5034494;28;20206;-55
2022/12/27 01:44:55;;;;;;;8.27;2.73;;;6.40;76.60;;;9.18;55.05;101695.16;5034390;28;20181;-52
2022/12/27 01:47:44;;;;;;;5.17;1.80;;;6.50;76.60;;;9.19;54.94;101691.56;5034249;28;20182;-52
2022/12/27 01:50:25;;;;;;;5.07;2.20;;;6.40;76.50;;;9.18;54.93;101705.66;5014684;28;20265;-51
2022/12/27 01:53:01;;;;;;;5.50;2.10;;;6.50;76.50;;;9.14;54.70;101699.88;5014379;28;20230;-53
2022/12/27 01:55:35;;;;;;;7.03;2.60;;;6.50;76.60;;;9.15;54.82;101705.97;5014371;28;20198;-53
2022/12/27 01:58:10;;;;;;;6.50;2.10;;;6.40;76.60;;;9.16;54.74;101711.06;5014572;28;20195;-52
2022/12/27 02:00:40;;;;;;;5.33;2.40;;;6.50;76.80;;;9.14;54.88;101712.16;5028505;28;20217;-52
2022/12/27 02:03:07;;;;;;;5.73;2.30;;;6.40;76.90;;;9.15;55.46;101713.84;5034263;28;20203;-52
2022/12/27 02:05:40;;;;;;;6.90;2.50;;;6.40;76.90;;;9.15;55.25;101706.75;5034118;28;20210;-53
2022/12/27 02:08:27;;;;;;;6.73;2.27;;;6.50;76.90;;;9.10;55.12;101710.81;5033734;28;20187;-53
2022/12/27 02:10:56;;;;;;;5.00;2.10;;;6.50;76.90;;;9.14;55.18;101707.75;5033900;28;20523;-53
2022/12/27 02:13:23;;;;;;;10.23;2.93;;;6.50;76.80;;;9.16;55.23;101708.44;5034235;28;20199;-55
2022/12/27 02:15:50;;;;;;;4.53;2.47;;;6.50;76.80;;;9.19;55.35;101708.16;5035103;28;20655;-55
2022/12/27 02:18:18;;;;;;;6.37;2.13;;;6.50;76.80;;;9.19;55.32;101708.16;5034089;28;20194;-55
2022/12/27 02:21:30;;;;;;;5.70;2.13;;;6.50;76.80;;;9.15;55.22;101717.28;5033527;28;20186;-55
2022/12/27 02:24:20;;;;;;;4.60;1.90;;;6.50;76.90;;;9.16;55.24;101710.22;5033564;28;20544;-53
2022/12/27 02:27:00;;;;;;;5.10;2.57;;;6.50;76.80;;;9.07;55.13;101714.53;5026663;28;20270;-55
2022/12/27 02:29:55;;;;;;;5.13;2.07;;;6.50;76.90;;;9.07;55.65;101725.03;5013718;28;20215;-58
2022/12/27 02:32:29;;;;;;;4.30;2.50;;;6.50;77.00;;;9.11;55.28;101723.78;5013896;28;20195;-52
2022/12/27 02:35:07;;;;;;;5.83;2.87;;;6.50;77.00;;;9.09;55.51;101725.72;5013683;28;20175;-53
2022/12/27 02:37:41;;;;;;;6.40;2.93;;;6.50;76.90;;;9.12;55.30;101722.81;5013586;28;20664;-52
2022/12/27 02:55:11;;;;;;;8.17;2.80;;;6.40;77.20;;;8.98;55.73;101714.56;5033294;28;20194;-54
2022/12/27 02:57:51;;;;;;;5.13;3.27;;;6.40;77.40;;;9.03;55.78;101712.34;5033277;28;20190;-54
2022/12/27 03:03:39;;;;;;;6.63;2.93;;;6.40;77.70;;;9.04;55.96;101720.06;5033920;28;20215;-55
2022/12/27 03:06:49;;;;;;;7.30;2.97;;;6.40;77.90;;;9.05;55.88;101713.84;5033936;28;20212;-55
2022/12/27 03:16:12;;;;;;;8.73;3.33;;;6.40;78.20;;;9.02;56.11;101718.53;5014966;28;20637;-54
2022/12/27 03:18:55;;;;;;;9.33;3.77;;;6.40;78.20;;;9.01;56.41;101720.34;5033571;28;20547;-55
2022/12/27 03:27:27;;;;;;;6.10;3.53;;;6.40;78.50;;;9.06;56.22;101731.25;5014699;28;20190;-54
2022/12/27 03:38:01;;;;;;;7.30;3.63;;;6.40;78.70;;;9.08;56.38;101736.38;5036460;28;20179;-54
2022/12/27 03:38:42;;;;;;;8.87;3.97;;;6.40;78.80;;;9.12;56.56;101735.13;5036136;28;20201;-54
2022/12/27 03:44:22;;;;;;;5.37;2.90;;;6.40;78.90;;;9.22;56.78;101742.00;5031855;28;20201;-53
2022/12/27 03:46:55;;;;;;;8.97;3.77;;;6.50;79.00;;;9.26;56.56;101743.41;5016757;28;20273;-54
2022/12/27 03:49:31;;;;;;;10.67;3.50;;;6.50;78.90;;;9.32;56.22;101742.81;5031573;28;20229;-53
2022/12/27 03:52:09;;;;;;;15.03;4.07;;;6.60;79.00;;;9.36;56.16;101735.50;5036675;28;20171;-52
2022/12/27 03:54:39;;;;;;;8.10;3.10;;;6.60;78.90;;;9.41;56.58;101739.34;5036637;28;20182;-53
2022/12/27 03:57:12;;;;;;;5.33;3.20;;;6.70;78.90;;;9.43;55.90;101744.47;5036493;28;20190;-55
2022/12/27 03:59:39;;;;;;;6.37;3.13;;;6.70;78.80;;;9.42;56.11;101741.00;5034937;28;20220;-52
2022/12/27 04:02:06;;;;;;;6.47;3.67;;;6.70;78.50;;;9.40;56.58;101752.63;5016603;28;20199;-52
2022/12/27 04:04:34;;;;;;;7.17;3.60;;;6.70;78.40;;;9.36;56.61;101740.75;5017223;28;20191;-53
2022/12/27 04:07:04;;;;;;;7.87;3.60;;;6.70;78.50;;;9.38;56.31;101747.53;5017135;28;20269;-52
2022/12/27 04:34:43;;;;;;;9.10;3.97;;;6.70;78.70;;;9.34;56.67;101758.47;5035295;28;20186;-53
2022/12/27 04:37:14;;;;;;;5.30;2.80;;;6.70;78.90;;;9.34;56.56;101756.63;5034958;28;20203;-55
2022/12/27 04:56:30;;;;;;;8.00;3.63;;;6.80;80.30;;;9.53;57.40;101784.69;5015462;28;20180;-54
2022/12/27 05:04:29;;;;;;;6.50;4.13;;;6.90;80.30;;;9.60;57.51;101792.84;5029225;28;20703;-51
2022/12/27 05:06:57;;;;;;;10.43;4.03;;;6.90;80.30;;;9.63;57.29;101789.94;5015299;28;20261;-54
2022/12/27 05:14:57;;;;;;;7.73;3.73;;;6.90;80.40;;;9.65;57.63;101811.63;5035267;28;20194;-54
2022/12/27 05:17:24;;;;;;;6.70;3.57;;;6.90;80.30;;;9.66;57.36;101821.16;5035165;28;20213;-54
2022/12/27 05:19:51;;;;;;;8.00;3.53;;;6.90;80.30;;;9.71;57.22;101819.78;5015205;28;20607;-54
2022/12/27 05:25:38;;;;;;;6.40;3.80;;;6.90;80.40;;;9.74;57.32;101834.44;5012984;28;20557;-54
2022/12/27 05:28:10;;;;;;;3.97;2.83;;;7.00;80.50;;;9.74;57.47;101834.44;5014481;28;20207;-54
2022/12/27 05:30:40;;;;;;;9.17;4.37;;;7.00;80.50;;;9.77;57.60;101828.91;5014495;28;20284;-52
2022/12/27 05:33:08;;;;;;;7.97;3.57;;;7.00;80.50;;;9.80;57.08;101831.22;5015145;28;20199;-52
2022/12/27 05:35:35;;;;;;;11.30;4.33;;;7.00;80.40;;;9.80;56.97;101828.59;5014730;28;20199;-53
2022/12/27 05:38:03;;;;;;;9.50;4.47;;;7.00;80.30;;;9.77;57.32;101834.97;5022120;28;20240;-52
2022/12/27 05:40:30;;;;;;;6.57;4.33;;;7.00;80.30;;;9.75;57.13;101849.22;5034014;28;20214;-55
2022/12/27 05:42:58;;;;;;;6.63;3.50;;;7.00;80.50;;;9.73;57.23;101840.66;5034930;28;20652;-51
2022/12/27 05:45:27;;;;;;;7.93;3.93;;;7.00;80.50;;;9.72;57.57;101858.25;5029452;28;20556;-53
2022/12/27 05:47:54;;;;;;;6.90;3.93;;;7.00;80.40;;;9.66;57.83;101842.19;5017010;28;20203;-52
2022/12/27 05:50:22;;;;;;;8.93;4.00;;;7.00;80.30;;;9.68;57.55;101840.25;5033766;28;20210;-52
2022/12/27 05:52:49;;;;;;;8.07;4.10;;;7.00;80.40;;;9.70;57.66;101846.22;5034405;28;20201;-53
2022/12/27 05:55:16;;;;;;;5.40;3.30;;;7.00;80.40;;;9.71;57.29;101846.06;5034341;28;20209;-55
2022/12/27 05:57:43;;;;;;;7.60;3.13;;;7.00;80.30;;;9.70;57.37;101856.72;5032752;28;20289;-52
2022/12/27 06:00:12;;;;;;;6.60;3.43;;;7.00;80.20;;;9.70;57.43;101854.91;5033498;28;20250;-52
2022/12/27 06:02:41;;;;;;;5.63;3.30;;;7.00;80.20;;;9.70;57.37;101856.72;5034171;28;20194;-56
2022/12/27 06:05:09;;;;;;;8.20;4.70;;;7.00;80.10;;;9.71;57.38;101855.75;5034215;28;20245;-52
2022/12/27 06:07:37;;;;;;;8.67;4.23;;;7.00;80.10;;;9.71;57.22;101853.09;5033858;28;20252;-53
2022/12/27 06:10:08;;;;;;;9.50;4.87;;;7.00;80.20;;;9.70;57.64;101864.63;5033922;28;20225;-55
2022/12/27 06:12:36;;;;;;;7.93;4.23;;;6.90;80.20;;;9.69;57.36;101862.94;5031150;28;20511;-53
2022/12/27 06:15:05;;;;;;;10.53;4.40;;;6.90;80.30;;;9.66;57.48;101864.06;5033359;28;20201;-54
2022/12/27 06:17:33;;;;;;;6.63;4.33;;;6.90;80.20;;;9.65;57.55;101867.63;5026374;28;20687;-54
2022/12/27 06:20:01;;;;;;;9.33;4.70;;;6.90;80.30;;;9.65;57.15;101874.72;5013734;28;20226;-55
2022/12/27 06:22:28;;;;;;;6.87;3.80;;;6.90;80.40;;;9.66;57.16;101868.47;5013959;28;20597;-54
2022/12/27 06:24:55;;;;;;;7.73;3.97;;;6.90;80.60;;;9.64;57.34;101868.63;5018941;28;20277;-54
2022/12/27 06:27:22;;;;;;;6.83;2.80;;;6.90;80.60;;;9.66;57.49;101868.47;5033715;28;20687;-54
2022/12/27 06:29:49;;;;;;;7.90;3.47;;;6.90;80.60;;;9.70;57.70;101877.75;5032848;28;20218;-53
2022/12/27 06:32:16;;;;;;;6.30;3.27;;;6.90;80.60;;;9.75;57.57;101891.28;5033550;28;20202;-54
2022/12/27 06:34:43;;;;;;;8.73;3.50;;;6.90;80.70;;;9.79;57.34;101890.88;5033397;28;20201;-55
2022/12/27 06:37:12;;;;;;;6.67;3.63;;;6.90;80.50;;;9.84;57.41;101895.72;5027514;28;20655;-52
2022/12/27 06:39:39;;;;;;;6.87;3.20;;;6.90;80.50;;;9.80;56.75;101897.78;5015912;28;20210;-55
2022/12/27 06:42:06;;;;;;;6.70;2.63;;;7.00;80.50;;;9.73;57.29;101901.13;5019668;28;20568;-58
2022/12/27 06:44:33;;;;;;;5.73;2.90;;;7.00;80.10;;;9.71;57.02;101892.53;5020111;28;20197;-55
2022/12/27 06:47:00;;;;;;;6.07;2.93;;;7.00;80.20;;;9.71;57.41;101896.00;5019888;28;20234;-55
2022/12/27 06:49:28;;;;;;;5.57;2.50;;;7.00;80.20;;;9.70;57.52;101893.53;5035697;28;20517;-54
2022/12/27 06:51:55;;;;;;;5.27;2.13;;;7.00;80.10;;;9.72;57.03;101895.06;5040879;28;20199;-55
2022/12/27 06:54:28;;;;;;;7.77;2.80;;;7.00;80.10;;;9.71;56.79;101898.63;5038873;28;20174;-54
2022/12/27 06:56:55;;;;;;;6.27;2.47;;;7.00;80.00;;;9.65;57.31;101898.38;5038759;28;20194;-54
2022/12/27 06:59:22;;;;;;;6.17;2.73;;;6.90;79.80;;;9.60;57.32;101901.41;5040717;28;20209;-54
2022/12/27 07:01:49;;;;;;;5.20;2.07;;;6.90;80.20;;;9.58;57.16;101907.78;5040653;28;20186;-56
2022/12/27 07:04:16;;;;;;;5.73;2.60;;;6.90;80.40;;;9.55;57.45;101914.94;5033827;28;20210;-55
2022/12/27 07:06:43;;;;;;;9.17;2.83;;;6.90;80.40;;;9.52;57.56;101923.13;5020651;28;20311;-52
2022/12/27 07:09:10;;;;;;;3.77;2.33;;;6.80;80.60;;;9.51;57.59;101931.97;5022403;28;20243;-55
2022/12/27 07:11:39;;;;;;;4.87;2.20;;;6.80;80.60;;;9.49;57.33;101935.72;5022092;28;20196;-55
2022/12/27 07:14:09;;;;;;;5.83;2.70;;;6.80;80.60;;;9.47;57.40;101933.22;5021125;28;20234;-55
2022/12/27 07:16:37;;;;;;;4.13;2.73;;;6.80;80.70;;;9.49;57.44;101941.78;5026837;28;20195;-53
2022/12/27 07:19:04;;;;;;;6.37;2.70;;;6.70;80.70;;;9.53;57.29;101953.69;5036963;28;20217;-53
2022/12/27 07:21:31;;;;;;;4.97;2.43;;;6.80;80.90;;;9.55;57.33;101946.50;5037203;28;20194;-54
2022/12/27 07:23:58;;;;;;;6.73;2.70;;;6.80;80.90;;;9.56;57.76;101952.59;5037087;28;20201;-54
2022/12/27 07:26:28;;;;;;;5.93;2.50;;;6.80;80.90;;;9.59;57.25;101962.00;5036897;28;20214;-52
2022/12/27 07:29:00;;;;;;;6.40;2.80;;;6.80;81.00;;;9.62;57.48;101966.97;5037266;28;20206;-52
2022/12/27 07:31:30;;;;;;;6.87;2.63;;;6.80;81.20;;;9.62;57.81;101966.97;5021737;28;20188;-52
2022/12/27 07:34:00;;;;;;;4.70;2.43;;;6.80;81.30;;;9.62;57.50;101973.06;5017079;28;20184;-53
2022/12/27 07:36:32;;;;;;;8.37;2.70;;;6.80;81.20;;;9.60;57.69;101968.91;5017422;28;20270;-53
2022/12/27 07:38:59;;;;;;;6.73;2.87;;;6.80;81.20;;;9.56;57.37;101978.84;5016841;28;20233;-54
2022/12/27 07:41:26;;;;;;;6.00;2.80;;;6.80;81.10;;;9.52;57.73;101994.09;5016974;28;20587;-51
2022/12/27 07:43:54;;;;;;;10.80;3.63;;;6.80;81.20;;;9.46;58.23;101994.63;5017159;28;20195;-51
2022/12/27 07:46:25;;;;;;;9.77;3.40;;;6.70;81.30;;;9.40;57.82;101995.19;5016642;28;20200;-51
2022/12/27 07:48:54;;;;;;;5.10;2.93;;;6.70;81.40;;;9.37;58.46;102000.69;5027016;28;20268;-54
2022/12/27 07:51:22;;;;;;;5.67;2.80;;;6.70;81.40;;;9.37;58.48;102003.31;5036626;28;20205;-52
2022/12/27 07:53:50;;;;;;;9.00;3.47;;;6.70;81.70;;;9.35;58.29;102013.13;5036693;28;20592;-53
2022/12/27 07:56:19;;;;;;;7.53;3.73;;;6.70;81.80;;;9.34;58.71;102019.34;5036831;28;20237;-52
2022/12/27 07:58:54;;;;;;;5.13;3.13;;;6.60;81.90;;;9.32;57.94;102018.66;5036072;28;20214;-54
2022/12/27 08:01:25;;;;;;;3.80;2.60;;;6.60;81.90;;;9.33;58.32;102014.25;5036083;28;20219;-52
2022/12/27 08:03:53;;;;;;;8.43;4.77;;;6.60;81.90;;;9.35;58.33;102021.03;5032267;28;20626;-55
2022/12/27 08:06:23;;;;;;;8.60;3.53;;;6.60;82.00;;;9.35;58.66;102017.56;5015822;28;20368;-51
2022/12/27 08:08:52;;;;;;;6.77;3.93;;;6.60;81.90;;;9.33;58.72;102030.00;5015830;28;20213;-53
2022/12/27 08:11:20;;;;;;;6.10;3.20;;;6.60;82.00;;;9.35;58.31;102034.16;5021815;28;20201;-52
2022/12/27 08:13:47;;;;;;;6.20;3.17;;;6.60;82.00;;;9.35;58.49;102031.53;5037698;28;20201;-51
2022/12/27 08:16:18;;;;;;;6.63;3.27;;;6.60;82.00;;;9.38;58.19;102038.31;5039254;28;20196;-51
2022/12/27 08:18:46;;;;;;;9.50;3.83;;;6.60;82.00;;;9.38;58.67;102039.16;5036119;28;20214;-53
2022/12/27 08:21:14;;;;;;;7.70;3.40;;;6.60;81.90;;;9.39;58.34;102030.28;5035324;28;20190;-53
2022/12/27 08:23:41;;;;;;;6.63;3.80;;;6.60;82.00;;;9.41;58.19;102030.97;5036439;28;20569;-52
2022/12/27 08:26:08;;;;;;;4.63;2.83;;;6.70;82.00;;;9.42;58.35;102029.19;5024589;28;20262;-53
2022/12/27 08:28:36;;;;;;;8.77;3.13;;;6.60;81.90;;;9.43;58.31;102031.69;5031603;28;20219;-54
2022/12/27 08:31:06;;;;;;;5.63;3.20;;;6.70;82.00;;;9.43;58.62;102039.59;5036281;28;20186;-51
2022/12/27 08:33:33;;;;;;;4.93;2.80;;;6.70;81.80;;;9.47;58.16;102038.34;5036691;28;20545;-53
2022/12/27 08:36:06;;;;;;;10.33;3.47;;;6.70;81.90;;;9.50;58.49;102031.97;5035829;28;20786;-55
2022/12/27 08:38:54;;;;;;;5.90;3.30;;;6.70;81.80;;;9.51;58.38;102042.34;5036506;28;20696;-55
2022/12/27 08:41:21;;;;;;;7.20;3.10;;;6.70;81.90;;;9.54;58.66;102039.47;5036188;28;20202;-51
2022/12/27 08:43:48;;;;;;;9.67;3.63;;;6.80;82.00;;;9.57;58.51;102040.16;5035958;28;20190;-56
2022/12/27 08:46:17;;;;;;;5.77;3.57;;;6.80;82.00;;;9.60;58.09;102032.00;5036133;28;20190;-54
2022/12/27 08:48:47;;;;;;;5.57;3.50;;;6.80;82.70;;;9.62;58.09;102051.09;5035289;28;20224;-54
2022/12/27 08:51:16;;;;;;;5.73;2.83;;;6.80;81.80;;;9.64;58.31;102055.25;5036796;28;20548;-55
2022/12/27 08:53:57;;;;;;;8.87;3.37;;;6.80;81.90;;;9.72;58.73;102062.47;5035130;28;20199;-51
2022/12/27 08:56:24;;;;;;;6.97;3.47;;;6.90;82.00;;;9.80;58.12;102060.78;5035477;28;20194;-53
2022/12/27 08:58:51;;;;;;;11.00;3.63;;;6.90;82.00;;;9.91;58.14;102073.00;5035157;28;20214;-55
2022/12/27 09:01:18;;;;;;;7.70;3.17;;;7.00;82.10;;;9.97;57.72;102077.69;5034865;28;20344;-52
2022/12/27 09:03:46;;;;;;;9.17;3.53;;;7.00;81.80;;;10.00;57.64;102077.44;5034915;28;20201;-52
2022/12/27 09:06:17;;;;;;;7.67;3.03;;;7.10;81.70;;;10.00;57.48;102080.06;5034211;28;20205;-52
2022/12/27 09:08:46;;;;;;;9.70;3.77;;;7.10;81.50;;;10.03;57.42;102087.69;5034230;28;20226;-53
2022/12/27 09:11:16;;;;;;;8.97;3.90;;;7.20;81.50;;;10.02;57.64;102083.38;5038904;28;20187;-51
2022/12/27 09:13:44;;;;;;;9.20;3.77;;;7.20;81.00;;;10.05;57.57;102093.63;5035245;28;20197;-52
2022/12/27 09:16:14;;;;;;;6.67;3.23;;;7.20;80.90;;;10.08;57.66;102095.97;5035072;28;20261;-53
2022/12/27 09:18:42;;;;;;;5.50;3.17;;;7.20;80.70;;;10.12;57.37;102092.13;5034755;28;20267;-52
2022/12/27 09:21:13;;;;;;;6.23;3.33;;;7.30;80.70;;;10.15;57.35;102099.72;5034594;28;20205;-54
2022/12/27 09:23:42;;;;;;;7.00;3.00;;;7.30;80.60;;;10.16;56.63;102098.78;5035441;28;20262;-52
2022/12/27 09:26:12;;;;;;;8.10;2.93;;;7.40;80.40;;;10.20;56.62;102106.25;5035337;28;20186;-55
2022/12/27 09:28:40;;;;;;;8.97;3.17;;;7.40;80.20;;;10.23;57.16;102105.16;5035242;28;20285;-51
2022/12/27 09:31:10;;;;;;;9.70;2.57;;;7.40;80.10;;;10.25;56.70;102113.72;5034622;28;20186;-52
2022/12/27 09:33:37;;;;;;;7.83;3.27;;;7.40;80.00;;;10.26;56.29;102115.41;5033269;28;20594;-52
2022/12/27 09:36:08;;;;;;;6.33;3.00;;;7.40;80.00;;;10.31;56.41;102113.19;5034767;28;20202;-52
2022/12/27 09:38:37;;;;;;;6.73;3.13;;;7.50;80.00;;;10.37;56.61;102117.03;5034678;28;20244;-52
2022/12/27 09:41:14;;;;;;;7.40;2.43;;;7.50;80.10;;;10.46;56.79;102111.78;5034341;28;20187;-54
2022/12/27 09:44:01;;;;;;;5.73;3.10;;;7.60;80.00;;;10.59;56.37;102108.88;5034445;28;20182;-54
2022/12/27 09:46:38;;;;;;;8.30;3.17;;;7.60;79.90;;;10.67;56.11;102109.81;5034378;28;20623;-52
2022/12/27 09:49:11;;;;;;;5.37;2.50;;;7.70;79.70;;;10.77;55.73;102120.31;5033573;28;20218;-52
2022/12/27 09:51:47;;;;;;;9.10;3.10;;;7.80;79.60;;;10.73;55.17;102111.91;5015864;28;20222;-53
2022/12/27 09:54:24;;;;;;;4.77;2.10;;;7.80;78.90;;;10.77;55.84;102110.63;5014893;28;20274;-51
2022/12/27 09:56:52;;;;;;;6.37;3.63;;;7.90;79.00;;;10.80;55.20;102114.78;5021982;28;20194;-51
2022/12/27 09:59:47;;;;;;;8.37;3.10;;;7.90;78.80;;;10.83;56.01;102120.63;5034087;28;20218;-53
2022/12/27 10:02:20;;;;;;;5.90;3.00;;;8.00;78.70;;;10.86;55.31;102125.56;5033942;28;20179;-54
2022/12/27 10:04:49;;;;;;;5.30;2.90;;;8.00;78.50;;;10.92;55.28;102123.34;5034353;28;20218;-53
2022/12/27 10:07:54;;;;;;;3.93;2.60;;;8.00;78.50;;;10.98;55.63;102122.78;5032423;28;20675;-51
2022/12/27 10:10:39;;;;;;;7.23;2.77;;;8.10;78.70;;;11.03;55.54;102121.38;5034210;28;20214;-54
2022/12/27 10:13:24;;;;;;;6.97;2.97;;;8.10;78.60;;;11.09;55.14;102118.19;5034773;28;20178;-57
2022/12/27 10:16:02;;;;;;;10.77;3.10;;;8.20;78.30;;;11.23;54.78;102111.59;5034650;28;20534;-55
2022/12/27 10:18:47;;;;;;;7.83;2.83;;;8.20;78.30;;;11.42;54.59;102125.53;5034283;28;20565;-56
2022/12/27 10:21:21;;;;;;;6.83;3.10;;;8.30;78.20;;;11.49;54.19;102123.16;5033637;28;20194;-54
2022/12/27 10:23:55;;;;;;;9.23;3.23;;;8.40;77.70;;;11.50;53.65;102124.81;5017342;28;20299;-52
2022/12/27 10:26:23;;;;;;;7.67;3.03;;;8.50;77.40;;;11.55;54.12;102127.84;5013692;28;20191;-54
2022/12/27 10:28:59;;;;;;;5.30;2.90;;;8.50;77.30;;;11.60;53.57;102120.31;5012066;28;20273;-54
2022/12/27 10:31:29;;;;;;;9.33;3.07;;;8.60;77.00;;;11.61;53.91;102127.25;5014469;28;20185;-54
2022/12/27 10:33:58;;;;;;;8.10;3.33;;;8.60;76.90;;;11.63;53.75;102124.44;5013650;28;20198;-53
2022/12/27 10:36:29;;;;;;;6.07;3.23;;;8.60;76.60;;;11.62;53.63;102133.38;5013527;28;20292;-54
2022/12/27 10:38:56;;;;;;;6.73;3.13;;;8.70;76.60;;;11.64;53.51;102136.69;5021972;28;20643;-54
2022/12/27 10:41:37;;;;;;;7.67;3.37;;;8.70;76.40;;;11.66;53.86;102138.19;5034680;28;20194;-54
2022/12/27 10:44:10;;;;;;;5.57;2.80;;;8.70;76.40;;;11.67;53.29;102139.84;5033780;28;20194;-55
2022/12/27 10:46:41;;;;;;;5.83;2.83;;;8.70;76.20;;;11.67;53.44;102142.47;5033707;28;20202;-52
2022/12/27 10:49:23;;;;;;;8.67;3.43;;;8.80;76.10;;;11.66;53.18;102146.09;5034895;28;20577;-53
2022/12/27 10:51:54;;;;;;;7.93;3.53;;;8.80;76.00;;;11.71;53.25;102154.44;5054422;28;20199;-55
2022/12/27 10:54:25;;;;;;;7.87;3.73;;;8.80;76.00;;;11.66;53.34;102151.38;5030108;28;20197;-53
2022/12/27 10:56:53;;;;;;;6.77;3.53;;;8.80;75.70;;;11.65;53.53;102152.34;5016813;28;20203;-53
2022/12/27 10:59:24;;;;;;;9.33;3.90;;;8.80;75.60;;;11.59;53.60;102160.84;5021268;28;20206;-53
2022/12/27 11:02:16;;;;;;;12.60;6.60;;;8.90;75.50;;;11.55;53.78;102164.75;5038878;28;20193;-55
2022/12/27 11:04:58;;;;;;;6.97;3.67;;;8.90;75.70;;;11.60;53.99;102162.50;5037637;28;20198;-55
2022/12/27 11:07:30;;;;;;;9.20;3.37;;;8.90;75.90;;;11.69;53.56;102160.84;5040590;28;20277;-60
2022/12/27 11:10:13;;;;;;;8.77;3.87;;;8.90;76.10;;;11.76;53.33;102146.09;5039312;28;20278;-53
2022/12/27 11:12:56;;;;;;;9.73;3.87;;;8.90;76.00;;;11.77;52.98;102148.56;5034465;28;20653;-54
2022/12/27 11:15:27;;;;;;;9.33;4.00;;;8.90;75.90;;;11.79;53.08;102151.88;5033238;28;20229;-56
2022/12/27 11:17:59;;;;;;;7.47;3.63;;;8.90;75.80;;;11.83;53.12;102152.44;5032697;28;20233;-52
2022/12/27 11:20:29;;;;;;;7.03;3.30;;;8.90;75.40;;;11.84;53.08;102157.53;5033435;28;20261;-56
2022/12/27 11:23:02;;;;;;;6.30;3.37;;;9.00;75.30;;;11.89;53.20;102168.50;5032852;28;20333;-54
2022/12/27 11:25:30;;;;;;;7.93;3.17;;;9.00;75.60;;;11.90;52.86;102169.31;5033105;28;20669;-53
2022/12/27 11:28:03;;;;;;;6.07;2.97;;;9.00;75.20;;;11.94;52.60;102173.31;5032061;28;20214;-55
2022/12/27 11:30:36;;;;;;;5.97;2.83;;;9.00;75.20;;;11.98;52.66;102170.25;5033073;28;20570;-53
2022/12/27 11:33:17;;;;;;;6.77;3.63;;;9.10;75.20;;;12.04;52.54;102177.56;5033187;28;20191;-54
2022/12/27 11:35:56;;;;;;;7.43;3.20;;;9.10;75.20;;;12.09;52.28;102164.78;5034565;28;20263;-56
2022/12/27 11:38:28;;;;;;;8.50;3.33;;;9.20;74.90;;;12.06;51.96;102180.91;5034275;28;20210;-54
2022/12/27 11:41:03;;;;;;;6.50;3.23;;;9.20;74.50;;;12.18;52.54;102174.44;5032534;28;20188;-55
2022/12/27 11:43:37;;;;;;;6.90;3.63;;;9.30;74.70;;;12.68;51.82;102184.44;5024500;28;20205;-56
2022/12/27 11:46:25;;;;;;;4.97;2.97;;;9.50;75.20;;;12.83;51.14;102180.28;5013773;28;20619;-55
2022/12/27 11:48:58;;;;;;;6.97;2.80;;;9.70;74.10;;;13.02;50.79;102173.97;5023223;28;20218;-56
2022/12/27 11:51:57;;;;;;;6.27;3.20;;;9.90;73.50;;;13.29;51.02;102172.03;5032768;28;20225;-53
2022/12/27 11:55:02;;;;;;;5.23;3.00;;;10.10;72.80;;;13.55;49.55;102172.84;5033581;28;20616;-53
2022/12/27 11:58:01;;;;;;;7.70;3.07;;;10.40;71.00;;;13.54;48.81;102168.53;5013235;28;20549;-55
2022/12/27 12:00:48;;;;;;;5.70;3.00;;;10.60;70.10;;;13.53;49.08;102172.16;5034946;28;20716;-54
2022/12/27 12:04:03;;;;;;;9.37;2.90;;;10.70;69.70;;;13.41;48.86;102165.50;5036444;28;20217;-55
2022/12/27 12:06:50;;;;;;;7.93;3.57;;;10.70;68.80;;;13.27;49.10;102165.25;5005970;28;20671;-52
2022/12/27 12:09:44;;;;;;;11.60;4.07;;;10.60;68.30;;;13.13;48.89;102165.81;5035198;28;20214;-56
2022/12/27 12:12:51;;;;;;;7.77;3.43;;;10.50;68.20;;;12.91;49.17;102167.13;5036004;28;20194;-55
2022/12/27 12:15:59;;;;;;;7.70;3.40;;;10.30;68.50;;;12.79;49.75;102173.63;5045891;28;20194;-53
2022/12/27 12:19:03;;;;;;;8.37;3.33;;;10.20;68.90;;;12.63;49.78;102174.34;5015601;28;20176;-56
2022/12/27 12:21:39;;;;;;;9.90;4.10;;;10.00;69.30;;;12.55;50.17;102170.81;5015623;28;20190;-54
2022/12/27 12:25:02;;;;;;;6.67;3.17;;;9.90;70.60;;;12.47;50.10;102166.28;5015542;28;20658;-53